createdAt,value
2022-08-04T00:01:41.622Z,56.40
2022-08-04T00:04:08.602Z,50.10
2022-08-04T00:06:35.496Z,52.10
2022-08-04T00:09:03.693Z,55.10
2022-08-04T00:11:30.594Z,51.60
2022-08-04T00:14:03.157Z,47.10
2022-08-04T00:16:31.350Z,53.60
2022-08-04T00:18:59.990Z,58.90
2022-08-04T00:21:26.845Z,51.90
2022-08-04T00:24:12.320Z,49.80
2022-08-04T00:26:39.845Z,50.60
2022-08-04T00:29:06.753Z,48.20
2022-08-04T00:31:54.864Z,52.60
2022-08-04T00:34:20.680Z,56.10
2022-08-04T00:36:47.527Z,60.50
2022-08-04T00:39:14.536Z,53.30
2022-08-04T00:41:56.068Z,54.30
2022-08-04T00:44:24.103Z,60.80
2022-08-04T00:46:51.145Z,53.80
2022-08-04T00:49:18.316Z,51.00
2022-08-04T00:51:45.325Z,55.40
2022-08-04T00:54:12.177Z,51.50
2022-08-04T00:56:39.113Z,48.70
2022-08-04T00:59:05.995Z,54.40
2022-08-04T01:01:32.980Z,55.70
2022-08-04T01:03:59.932Z,49.80
2022-08-04T01:06:26.867Z,49.50
2022-08-04T01:08:53.777Z,53.50
2022-08-04T01:11:20.729Z,54.00
2022-08-04T01:13:49.724Z,49.80
2022-08-04T01:16:16.747Z,46.90
2022-08-04T01:18:43.658Z,52.00
2022-08-04T01:21:10.598Z,53.50
2022-08-04T01:23:37.574Z,48.20
2022-08-04T01:26:07.725Z,51.60
2022-08-04T01:28:51.441Z,56.00
2022-08-04T01:31:18.674Z,48.80
2022-08-04T01:33:59.139Z,57.00
2022-08-04T01:36:31.796Z,57.40
2022-08-04T01:38:58.836Z,49.70
2022-08-04T01:41:32.868Z,52.50
2022-08-04T01:43:59.983Z,55.20
2022-08-04T01:46:26.958Z,50.30
2022-08-04T01:48:53.853Z,51.80
2022-08-04T01:51:21.071Z,56.30
2022-08-04T01:53:48.012Z,55.70
2022-08-04T01:56:14.940Z,49.50
2022-08-04T01:58:41.939Z,53.80
2022-08-04T02:01:09.255Z,52.60
2022-08-04T02:04:21.079Z,49.30
2022-08-04T02:06:23.206Z,54.40
2022-08-04T02:08:50.153Z,54.00
2022-08-04T02:11:17.044Z,48.40
2022-08-04T02:13:43.979Z,47.80
2022-08-04T02:16:11.332Z,53.10
2022-08-04T02:18:38.313Z,50.20
2022-08-04T02:21:05.228Z,54.40
2022-08-04T02:23:32.193Z,57.70
2022-08-04T02:25:59.035Z,51.20
2022-08-04T02:28:25.922Z,51.30
2022-08-04T02:30:52.864Z,57.10
2022-08-04T02:33:19.774Z,54.70
2022-08-04T02:35:46.732Z,49.90
2022-08-04T02:38:16.734Z,58.50
2022-08-04T02:40:52.341Z,56.20
2022-08-04T02:43:19.242Z,49.30
2022-08-04T02:46:06.168Z,54.40
2022-08-04T02:48:44.992Z,54.50
2022-08-04T02:51:11.936Z,48.80
2022-08-04T02:53:38.902Z,53.00
2022-08-04T02:56:05.787Z,58.10
2022-08-04T02:58:32.684Z,54.60
2022-08-04T03:00:59.692Z,48.90
2022-08-04T03:03:27.028Z,57.90
2022-08-04T03:06:00.739Z,56.30
2022-08-04T03:08:28.580Z,50.10
2022-08-04T03:10:55.544Z,53.60
2022-08-04T03:13:22.433Z,55.80
2022-08-04T03:15:49.385Z,50.50
2022-08-04T03:18:16.295Z,50.90
2022-08-04T03:20:43.250Z,58.10
2022-08-04T03:23:14.187Z,54.20
2022-08-04T03:25:56.589Z,48.70
2022-08-04T03:28:24.459Z,50.30
2022-08-04T03:30:51.366Z,49.10
2022-08-04T03:33:18.270Z,53.50
2022-08-04T03:35:45.234Z,56.60
2022-08-04T03:38:12.163Z,60.30
2022-08-04T03:40:39.213Z,53.10
2022-08-04T03:43:06.057Z,52.50
2022-08-04T03:45:32.958Z,55.70
2022-08-04T03:47:59.911Z,52.60
2022-08-04T03:50:26.812Z,48.00
2022-08-04T03:52:53.848Z,53.00
2022-08-04T03:55:20.783Z,57.70
2022-08-04T03:57:47.802Z,52.70
2022-08-04T04:00:14.707Z,49.90
2022-08-04T04:02:41.695Z,55.00
2022-08-04T04:05:08.697Z,52.10
2022-08-04T04:07:36.704Z,48.30
2022-08-04T04:10:06.508Z,50.80
2022-08-04T04:12:34.523Z,55.40
2022-08-04T04:15:01.506Z,55.30
2022-08-04T04:17:28.657Z,51.60
2022-08-04T04:19:58.232Z,50.70
2022-08-04T04:22:25.672Z,49.80
2022-08-04T04:24:52.515Z,52.10
2022-08-04T04:27:19.759Z,55.20
2022-08-04T04:29:46.822Z,55.90
2022-08-04T04:32:13.728Z,50.00
2022-08-04T04:34:44.180Z,54.40
2022-08-04T04:37:13.240Z,59.10
2022-08-04T04:39:40.375Z,52.70
2022-08-04T04:42:07.431Z,48.30
2022-08-04T04:44:34.324Z,51.60
2022-08-04T04:47:01.215Z,55.40
2022-08-04T04:49:28.115Z,51.10
2022-08-04T04:51:55.026Z,53.70
2022-08-04T04:54:22.008Z,59.80
2022-08-04T04:56:48.854Z,53.80
2022-08-04T04:59:15.802Z,51.50
2022-08-04T05:01:42.712Z,56.00
2022-08-04T05:04:09.806Z,54.10
2022-08-04T05:06:36.893Z,49.10
2022-08-04T05:09:03.797Z,46.90
2022-08-04T05:11:30.726Z,53.20
2022-08-04T05:14:34.916Z,55.20
2022-08-04T05:16:44.500Z,50.80
2022-08-04T05:19:11.444Z,51.30
2022-08-04T05:21:38.439Z,51.20
2022-08-04T05:24:05.361Z,49.00
2022-08-04T05:26:32.249Z,57.10
2022-08-04T05:28:59.167Z,57.50
2022-08-04T05:31:28.291Z,51.10
2022-08-04T05:33:55.286Z,48.40
2022-08-04T05:36:39.878Z,51.40
2022-08-04T05:39:07.788Z,55.60
2022-08-04T05:41:45.923Z,56.90
2022-08-04T05:44:14.871Z,54.60
2022-08-04T05:46:41.844Z,50.10
2022-08-04T05:49:08.763Z,48.20
2022-08-04T05:51:37.320Z,54.70
2022-08-04T05:54:04.170Z,58.20
2022-08-04T05:56:31.108Z,52.50
2022-08-04T05:58:58.002Z,50.20
2022-08-04T06:01:24.951Z,51.50
2022-08-04T06:03:51.868Z,49.40
2022-08-04T06:06:18.800Z,51.00
2022-08-04T06:08:45.867Z,59.10
2022-08-04T06:11:12.796Z,56.10
2022-08-04T06:13:48.787Z,52.00
2022-08-04T06:16:26.713Z,49.60
2022-08-04T06:19:59.695Z,49.30
2022-08-04T06:21:44.425Z,49.10
2022-08-04T06:24:11.270Z,48.10
2022-08-04T06:26:38.236Z,49.70
2022-08-04T06:29:05.140Z,57.90
2022-08-04T06:32:29.736Z,60.80
2022-08-04T06:34:18.955Z,53.70
2022-08-04T06:36:46.016Z,50.00
2022-08-04T06:39:12.981Z,47.90
2022-08-04T06:42:14.919Z,46.60
2022-08-04T06:44:27.776Z,45.80
2022-08-04T06:46:54.806Z,45.30
2022-08-04T06:49:21.811Z,45.00
2022-08-04T06:51:49.633Z,45.60
2022-08-04T06:54:16.798Z,47.10
2022-08-04T06:56:43.756Z,47.10
2022-08-04T06:59:10.797Z,51.80
2022-08-04T07:01:37.710Z,56.10
2022-08-04T07:04:04.797Z,54.60
2022-08-04T07:06:31.671Z,49.50
2022-08-04T07:08:58.599Z,53.30
2022-08-04T07:11:25.501Z,56.10
2022-08-04T07:13:52.446Z,51.50
2022-08-04T07:16:19.351Z,50.20
2022-08-04T07:18:46.361Z,57.00
2022-08-04T07:21:13.227Z,55.70
2022-08-04T07:23:40.201Z,49.80
2022-08-04T07:26:12.748Z,48.30
2022-08-04T07:28:40.481Z,53.50
2022-08-04T07:31:07.410Z,55.80
2022-08-04T07:33:34.305Z,56.80
2022-08-04T07:36:09.163Z,52.80
2022-08-04T07:38:48.214Z,49.60
2022-08-04T07:44:05.397Z,47.30
2022-08-04T07:46:32.410Z,47.90
2022-08-04T07:48:59.322Z,53.50
2022-08-04T07:51:26.265Z,56.60
2022-08-04T07:53:56.250Z,54.50
2022-08-04T07:56:23.747Z,49.60
2022-08-04T07:58:50.719Z,47.70
2022-08-04T08:01:17.946Z,47.50
2022-08-04T08:03:44.947Z,49.30
2022-08-04T08:06:31.228Z,54.80
2022-08-04T08:08:58.766Z,56.40
2022-08-04T08:11:25.722Z,51.40
2022-08-04T08:14:12.660Z,49.40
2022-08-04T08:16:39.551Z,49.20
2022-08-04T08:19:06.450Z,58.00
2022-08-04T08:21:33.398Z,56.80
2022-08-04T08:24:00.427Z,52.90
2022-08-04T08:26:27.502Z,50.40
2022-08-04T08:28:55.588Z,48.60
2022-08-04T08:31:22.600Z,47.60
2022-08-04T08:34:09.740Z,46.80
2022-08-04T08:36:36.588Z,46.50
2022-08-04T08:39:03.579Z,47.60
2022-08-04T08:41:30.516Z,48.00
2022-08-04T08:44:06.394Z,47.90
2022-08-04T08:46:49.045Z,48.10
2022-08-04T08:50:02.101Z,51.00
2022-08-04T08:52:03.592Z,55.60
2022-08-04T08:54:30.725Z,59.50
2022-08-04T08:56:57.723Z,52.80
2022-08-04T08:59:24.678Z,48.90
2022-08-04T09:01:51.702Z,48.60
2022-08-04T09:04:23.790Z,48.50
2022-08-04T09:06:50.995Z,48.20
2022-08-04T09:09:17.916Z,54.80
2022-08-04T09:11:44.863Z,59.80
2022-08-04T09:14:11.756Z,54.00
2022-08-04T09:16:38.708Z,51.60
2022-08-04T09:19:05.665Z,49.50
2022-08-04T09:21:32.799Z,48.50
2022-08-04T09:23:59.693Z,47.90
2022-08-04T09:26:26.642Z,47.40
2022-08-04T09:28:54.682Z,46.60
2022-08-04T09:31:22.158Z,46.30
2022-08-04T09:33:49.051Z,46.10
2022-08-04T09:36:16.105Z,46.50
2022-08-04T09:38:53.260Z,45.90
2022-08-04T09:41:26.213Z,45.90
2022-08-04T09:44:49.310Z,45.70
2022-08-04T09:46:54.140Z,45.00
2022-08-04T09:49:21.279Z,45.00
2022-08-04T09:51:58.385Z,45.40
2022-08-04T09:54:30.515Z,45.40
2022-08-04T09:56:58.001Z,45.20
2022-08-04T09:59:24.901Z,44.90
2022-08-04T10:01:59.926Z,44.80
2022-08-04T10:04:27.320Z,44.90
2022-08-04T10:06:54.393Z,44.70
2022-08-04T10:09:21.391Z,44.70
2022-08-04T10:11:54.565Z,44.60
2022-08-04T10:14:23.307Z,44.80
2022-08-04T10:16:50.648Z,44.60
2022-08-04T10:19:17.932Z,44.50
2022-08-04T10:21:58.954Z,44.60
2022-08-04T10:24:26.984Z,44.50
2022-08-04T10:26:57.356Z,44.50
2022-08-04T10:29:25.163Z,44.70
2022-08-04T10:31:53.766Z,44.70
2022-08-04T10:34:20.673Z,44.60
2022-08-04T10:36:47.592Z,44.70
2022-08-04T10:39:42.811Z,44.30
2022-08-04T10:42:01.437Z,44.30
2022-08-04T10:44:28.399Z,44.30
2022-08-04T10:47:00.212Z,44.40
2022-08-04T10:49:27.466Z,44.50
2022-08-04T10:51:58.380Z,44.30
2022-08-04T10:54:26.754Z,43.50
2022-08-04T10:56:56.822Z,43.50
2022-08-04T10:59:23.983Z,43.80
2022-08-04T11:02:02.659Z,44.10
2022-08-04T11:04:30.770Z,44.30
2022-08-04T11:06:57.626Z,45.10
2022-08-04T11:09:24.534Z,48.30
2022-08-04T11:12:00.294Z,48.20
2022-08-04T11:14:29.247Z,46.50
2022-08-04T11:16:56.287Z,45.40
2022-08-04T11:19:23.603Z,52.90
2022-08-04T11:22:10.621Z,54.70
2022-08-04T11:24:37.486Z,48.20
2022-08-04T11:27:04.505Z,46.20
2022-08-04T11:29:31.547Z,46.00
2022-08-04T11:31:58.628Z,54.70
2022-08-04T11:34:25.544Z,52.10
2022-08-04T11:36:52.756Z,47.60
2022-08-04T11:39:19.720Z,45.40
2022-08-04T11:41:46.674Z,46.00
2022-08-04T11:44:13.634Z,47.10
2022-08-04T11:46:40.577Z,47.00
2022-08-04T11:49:07.652Z,46.30
2022-08-04T11:51:34.680Z,45.60
2022-08-04T11:54:01.578Z,45.40
2022-08-04T11:56:36.887Z,44.80
2022-08-04T11:59:05.155Z,44.50
2022-08-04T12:01:32.186Z,44.30
2022-08-04T12:04:03.757Z,44.10
2022-08-04T12:06:31.811Z,44.20
2022-08-04T12:08:59.013Z,44.30
2022-08-04T12:11:26.139Z,44.40
2022-08-04T12:13:56.242Z,44.50
2022-08-04T12:16:27.823Z,43.40
2022-08-04T12:18:57.714Z,42.90
2022-08-04T12:21:25.346Z,42.60
2022-08-04T12:23:59.763Z,42.90
2022-08-04T12:26:27.947Z,43.30
2022-08-04T12:29:09.697Z,51.60
2022-08-04T12:31:37.358Z,54.50
2022-08-04T12:34:06.632Z,47.70
2022-08-04T12:36:33.863Z,45.60
2022-08-04T12:39:00.871Z,44.60
2022-08-04T12:41:27.913Z,45.70
2022-08-04T12:43:54.892Z,46.80
2022-08-04T12:46:21.950Z,46.60
2022-08-04T12:48:49.018Z,45.90
2022-08-04T12:52:05.873Z,45.20
2022-08-04T12:54:03.137Z,44.80
2022-08-04T12:56:30.110Z,44.60
2022-08-04T12:58:57.350Z,44.50
2022-08-04T13:02:08.594Z,44.60
2022-08-04T13:04:11.320Z,44.40
2022-08-04T13:06:38.265Z,43.70
2022-08-04T13:09:05.185Z,43.80
2022-08-04T13:11:36.569Z,43.70
2022-08-04T13:14:24.858Z,43.50
2022-08-04T13:16:51.060Z,43.20
2022-08-04T13:19:17.913Z,43.20
2022-08-04T13:21:50.213Z,43.10
2022-08-04T13:24:32.298Z,43.00
2022-08-04T13:27:03.550Z,43.00
2022-08-04T13:30:00.353Z,42.90
2022-08-04T13:32:20.225Z,43.10
2022-08-04T13:34:49.470Z,43.10
2022-08-04T13:37:21.070Z,43.00
2022-08-04T13:39:55.851Z,43.00
2022-08-04T13:42:23.475Z,43.10
2022-08-04T13:44:50.353Z,43.10
2022-08-04T13:47:17.341Z,43.00
2022-08-04T13:50:01.130Z,43.10
2022-08-04T13:52:31.325Z,43.20
2022-08-04T13:54:58.225Z,43.20
2022-08-04T13:57:25.324Z,43.00
2022-08-04T13:59:52.639Z,42.80
2022-08-04T14:02:19.649Z,42.90
2022-08-04T14:04:46.653Z,42.90
2022-08-04T14:07:20.762Z,43.10
2022-08-04T14:10:03.163Z,42.90
2022-08-04T14:12:45.830Z,43.10
2022-08-04T14:15:13.996Z,42.90
2022-08-04T14:17:40.841Z,42.90
2022-08-04T14:20:07.789Z,42.90
2022-08-04T14:22:34.928Z,42.90
2022-08-04T14:25:01.841Z,42.80
2022-08-04T14:27:28.819Z,42.80
2022-08-04T14:29:55.736Z,42.80
2022-08-04T14:32:26.039Z,42.80
2022-08-04T14:34:53.551Z,42.60
2022-08-04T14:37:22.315Z,42.70
2022-08-04T14:40:18.065Z,42.70
2022-08-04T14:42:36.406Z,42.80
2022-08-04T14:45:03.314Z,42.70
2022-08-04T14:47:30.228Z,42.50
2022-08-04T14:49:57.129Z,42.50
2022-08-04T14:52:24.448Z,42.50
2022-08-04T14:54:51.507Z,42.70
2022-08-04T14:57:18.520Z,42.70
2022-08-04T14:59:59.173Z,43.00
2022-08-04T15:02:30.568Z,43.00
2022-08-04T15:04:57.599Z,43.30
2022-08-04T15:07:24.547Z,43.20
2022-08-04T15:09:51.582Z,43.40
2022-08-04T15:12:18.479Z,43.30
2022-08-04T15:14:45.427Z,43.30
2022-08-04T15:17:29.029Z,43.30
2022-08-04T15:19:57.333Z,43.40
2022-08-04T15:22:24.285Z,43.40
2022-08-04T15:24:54.963Z,43.40
2022-08-04T15:27:22.706Z,43.40
2022-08-04T15:30:00.490Z,43.40
2022-08-04T15:32:28.621Z,43.50
2022-08-04T15:34:55.513Z,43.40
2022-08-04T15:37:22.488Z,43.40
2022-08-04T15:39:49.371Z,43.40
2022-08-04T15:42:20.856Z,43.20
2022-08-04T15:44:48.527Z,43.40
2022-08-04T15:47:15.379Z,43.00
2022-08-04T15:49:42.421Z,43.00
2022-08-04T15:52:09.627Z,43.20
2022-08-04T15:54:39.642Z,43.10
2022-08-04T15:57:09.600Z,43.20
2022-08-04T15:59:36.514Z,43.10
2022-08-04T16:02:11.598Z,43.10
2022-08-04T16:04:39.013Z,43.10
2022-08-04T16:07:05.877Z,43.20
2022-08-04T16:09:45.886Z,43.10
2022-08-04T16:12:13.878Z,43.10
2022-08-04T16:14:40.857Z,43.00
2022-08-04T16:17:08.146Z,43.60
2022-08-04T16:19:36.049Z,43.10
2022-08-04T16:22:03.125Z,43.30
2022-08-04T16:24:30.143Z,43.40
2022-08-04T16:26:57.266Z,43.30
2022-08-04T16:29:24.306Z,43.20
2022-08-04T16:31:51.173Z,43.50
2022-08-04T16:34:45.707Z,43.20
2022-08-04T16:37:05.048Z,43.10
2022-08-04T16:39:32.159Z,43.00
2022-08-04T16:42:17.851Z,42.80
2022-08-04T16:44:53.271Z,42.70
2022-08-04T16:47:22.394Z,42.80
2022-08-04T16:49:51.852Z,42.90
2022-08-04T16:52:18.989Z,42.80
2022-08-04T16:54:45.841Z,42.90
2022-08-04T16:57:12.796Z,42.70
2022-08-04T16:59:39.761Z,42.70
2022-08-04T17:02:06.743Z,42.70
2022-08-04T17:04:33.759Z,42.50
2022-08-04T17:07:00.596Z,42.40
2022-08-04T17:09:28.905Z,42.20
2022-08-04T17:11:55.938Z,42.20
2022-08-04T17:14:23.001Z,42.20
2022-08-04T17:16:49.928Z,42.40
2022-08-04T17:19:20.053Z,45.40
2022-08-04T17:21:52.684Z,51.60
2022-08-04T17:24:19.640Z,51.50
2022-08-04T17:26:53.601Z,46.30
2022-08-04T17:29:21.221Z,44.30
2022-08-04T17:31:48.189Z,43.30
2022-08-04T17:34:16.552Z,42.80
2022-08-04T17:36:47.695Z,42.50
2022-08-04T17:39:17.020Z,42.30
2022-08-04T17:41:48.591Z,50.30
2022-08-04T17:44:16.455Z,52.80
2022-08-04T17:46:43.500Z,46.30
2022-08-04T17:49:10.413Z,45.90
2022-08-04T17:52:04.079Z,46.50
2022-08-04T17:54:29.623Z,47.10
2022-08-04T17:56:56.956Z,46.40
2022-08-04T17:59:55.517Z,49.90
2022-08-04T18:02:12.751Z,54.20
2022-08-04T18:04:39.648Z,52.00
2022-08-04T18:08:38.952Z,48.30
2022-08-04T18:10:30.943Z,53.40
2022-08-04T18:13:00.603Z,50.00
2022-08-04T18:15:40.602Z,55.90
2022-08-04T18:18:21.197Z,56.00
2022-08-04T18:20:50.243Z,49.00
2022-08-04T18:23:17.407Z,46.80
2022-08-04T18:25:50.348Z,52.40
2022-08-04T18:28:27.021Z,52.20
2022-08-04T18:30:56.230Z,47.80
2022-08-04T18:33:40.707Z,57.20
2022-08-04T18:36:32.925Z,55.20
2022-08-04T18:38:58.864Z,48.30
2022-08-04T18:41:26.420Z,47.30
2022-08-04T18:43:55.517Z,53.70
2022-08-04T18:46:23.053Z,55.20
2022-08-04T18:48:53.988Z,49.00
2022-08-04T18:51:23.795Z,50.50
2022-08-04T18:53:55.496Z,49.70
2022-08-04T18:59:12.810Z,57.10
2022-08-04T19:02:13.545Z,57.30
2022-08-04T19:04:32.855Z,50.50
2022-08-04T19:07:23.387Z,47.70
2022-08-04T19:09:51.998Z,54.40
2022-08-04T19:12:27.183Z,51.20
2022-08-04T19:14:58.359Z,50.40
2022-08-04T19:17:53.654Z,57.80
2022-08-04T19:20:23.339Z,55.10
2022-08-04T19:25:59.413Z,49.20
2022-08-04T19:28:27.949Z,49.00
2022-08-04T19:30:56.809Z,47.60
2022-08-04T19:33:25.219Z,53.40
2022-08-04T19:35:52.410Z,55.10
2022-08-04T19:38:19.280Z,54.70
2022-08-04T19:40:50.694Z,49.30
2022-08-04T19:43:20.036Z,52.90
2022-08-04T19:45:47.010Z,59.00
2022-08-04T19:48:18.747Z,53.40
2022-08-04T19:50:46.643Z,48.80
2022-08-04T19:53:18.985Z,55.00
2022-08-04T19:55:49.864Z,50.00
2022-08-04T19:58:17.253Z,47.70
2022-08-04T20:00:50.926Z,52.40
2022-08-04T20:03:20.447Z,58.30
2022-08-04T20:05:53.417Z,54.30
2022-08-04T20:08:22.805Z,48.40
2022-08-04T20:10:51.595Z,51.00
2022-08-04T20:13:19.376Z,54.90
2022-08-04T20:15:57.569Z,52.00
2022-08-04T20:18:35.719Z,49.00
2022-08-04T20:21:22.745Z,58.70
2022-08-04T20:23:51.416Z,53.40
2022-08-04T20:26:18.371Z,48.00
2022-08-04T20:28:45.927Z,52.70
2022-08-04T20:31:13.177Z,55.30
2022-08-04T20:33:49.119Z,49.50
2022-08-04T20:36:20.366Z,55.10
2022-08-04T20:38:51.983Z,55.90
2022-08-04T20:41:19.862Z,50.20
2022-08-04T20:43:49.797Z,53.10
2022-08-04T20:46:18.667Z,58.70
2022-08-04T20:48:56.676Z,53.10
2022-08-04T20:51:32.145Z,49.20
2022-08-04T20:54:01.011Z,50.90
2022-08-04T20:56:31.013Z,49.20
2022-08-04T20:58:58.385Z,47.70
2022-08-04T21:01:29.585Z,52.40
2022-08-04T21:06:44.031Z,58.30
2022-08-04T21:09:37.271Z,52.30
2022-08-04T21:12:04.143Z,49.10
2022-08-04T21:14:31.060Z,47.20
2022-08-04T21:16:58.076Z,45.90
2022-08-04T21:19:26.914Z,45.60
2022-08-04T21:21:54.071Z,47.20
2022-08-04T21:24:21.089Z,48.20
2022-08-04T21:26:56.390Z,50.20
2022-08-04T21:29:23.980Z,55.30
2022-08-04T21:32:01.991Z,56.50
2022-08-04T21:34:38.513Z,56.50
2022-08-04T21:37:07.128Z,50.60
2022-08-04T21:39:58.938Z,50.10
2022-08-04T21:42:42.443Z,54.50
2022-08-04T21:45:09.787Z,48.70
2022-08-04T21:50:25.131Z,49.20
2022-08-04T21:52:57.729Z,55.10
2022-08-04T21:55:26.225Z,55.90
2022-08-04T21:58:13.356Z,50.60
2022-08-04T22:00:40.701Z,51.00
2022-08-04T22:03:21.223Z,54.30
2022-08-04T22:05:57.339Z,54.50
2022-08-04T22:08:29.660Z,49.40
2022-08-04T22:10:57.825Z,47.20
2022-08-04T22:13:52.640Z,52.30
2022-08-04T22:16:12.030Z,54.10
2022-08-04T22:18:39.037Z,52.80
2022-08-04T22:21:11.760Z,47.80
2022-08-04T22:23:44.924Z,46.50
2022-08-04T22:26:12.847Z,52.30
2022-08-04T22:28:39.761Z,54.20
2022-08-04T22:31:24.318Z,51.40
2022-08-04T22:33:55.235Z,48.00
2022-08-04T22:36:24.807Z,46.90
2022-08-04T22:39:01.515Z,53.40
2022-08-04T22:41:33.798Z,56.90
2022-08-04T22:44:01.557Z,52.10
2022-08-04T22:46:28.505Z,48.30
2022-08-04T22:48:55.437Z,56.60
2022-08-04T22:51:27.145Z,57.00
2022-08-04T22:53:54.313Z,50.60
2022-08-04T22:56:38.017Z,50.20
2022-08-04T22:59:05.972Z,50.40
2022-08-04T23:01:57.813Z,53.60
2022-08-04T23:04:19.934Z,56.20
2022-08-04T23:06:46.862Z,55.00
2022-08-04T23:09:16.177Z,49.40
2022-08-04T23:11:43.459Z,49.50
2022-08-04T23:14:11.050Z,54.70
2022-08-04T23:16:40.414Z,54.70
2022-08-04T23:19:10.052Z,49.30
2022-08-04T23:21:47.336Z,51.40
2022-08-04T23:24:18.299Z,54.60
2022-08-04T23:26:45.919Z,52.40
2022-08-04T23:29:12.955Z,48.00
2022-08-04T23:31:40.889Z,51.50
2022-08-04T23:34:15.328Z,53.90
2022-08-04T23:36:45.767Z,53.30
2022-08-04T23:39:14.485Z,48.60
2022-08-04T23:41:53.816Z,46.70
2022-08-04T23:44:26.565Z,52.10
2022-08-04T23:46:54.239Z,53.90
2022-08-04T23:49:22.559Z,52.30
2022-08-04T23:51:49.640Z,47.60
2022-08-04T23:54:16.834Z,46.30
2022-08-04T23:56:52.711Z,52.40
2022-08-04T23:59:48.989Z,53.70
